Wednesday, November 22, 2017, 12:56 PM GMT
Back to Local

CXBO, Beauport CS, Que.

Location: , , Canada Lat: 46.833
Local Time: 12:56 PM GMT (12:56 GMT) Lon: -71.2
Time Zone: GMT Elev: 32 ft

Show me the last for .
Show Coded

Time T Td Feel RH Dir Speed Gust Alt SLP Vis Weather Sky Remarks
2017-11-22 10:00 - - - 0 330° 1 - - - 0 None
2017-11-22 09:00 - - - 0 240° 2 - - - 0 None
2017-11-22 08:00 - - - 0 240° 2 - - - 0 None
2017-11-22 07:00 - - - 0 230° 3 - - - 0 None
2017-11-22 06:00 - - - 0 - Calm - - - 0 None
2017-11-22 05:00 - - - 0 360° 2 - - - 0 None
2017-11-22 04:00 - - - 0 30° 5 - - - 0 None
2017-11-22 03:00 - - - 0 100° 3 - - - 0 None
2017-11-22 02:00 - - - 0 50° 7 - - - 0 None
2017-11-22 01:00 - - - 0 40° 6 - - - 0 None
2017-11-22 00:00 - - - 0 80° 6 - - - 0 None
2017-11-21 23:00 - - - 0 60° 6 - - - 0 None
2017-11-21 22:00 - - - 0 70° 9 - - - 0 None
2017-11-21 21:00 - - - 0 80° 9 - - - 0 None
2017-11-21 20:00 - - - 0 90° 8 - - - 0 None
2017-11-21 19:00 - - - 0 100° 7 - - - 0 None
2017-11-21 18:00 - - - 0 80° 7 - - - 0 None
2017-11-21 17:00 - - - 0 70° 7 - - - 0 None
2017-11-21 16:00 - - - 0 60° 8 - - - 0 None
2017-11-21 15:00 - - - 0 70° 9 - - - 0 None
2017-11-21 13:00 - - - 0 80° 7 - - - 0 None

Support USWX by starting your Amazon purchase here.